KHIB/HIB METAR and TAF weather

Enter ICAO airport designator
Station Type Date Time Source
KHIB METAR 2020/07/15 07:30 UTC NOAA

KHIB 150730Z AUTO 00000KT 1SM BR CLR 08/08 A2996 RMK AO2 T00780078


Station Type Date Time Source
KHIB Decoded METAR 2020/07/15 07:30 UTC NOAA

CHISHOLM-HIBBING AIRPORT, MN, United States (KHIB) 47-23N 92-50W 412M
Jul 15, 2020 - 03:30 AM EDT / 2020.07.15 0730 UTC
Wind: Calm:0
Visibility: 1 mile(s):0
Sky conditions: clear
Weather: mist
Temperature: 46.0 F (7.8 C)
Dew Point: 46.0 F (7.8 C)
Relative Humidity: 100%
Pressure (altimeter): 29.96 in. Hg (1014 hPa)
ob: KHIB 150730Z AUTO 00000KT 1SM BR CLR 08/08 A2996 RMK AO2 T00780078
cycle: 7

Station Type Date Time Source
KHIB TAF 2020/07/15 06:36 UTC NOAA

TAF KHIB 150534Z 1506/1606 00000KT 1 1/2SM BR SKC
TEMPO 1509/1511 1/2SM FG
FM151500 23006G17KT P6SM SCT050
FM160100 23007KT P6SM SKC

Example: see airport list